sensor_id;sensor_type;location;lat;lon;timestamp;P1;durP1;ratioP1;P2;durP2;ratioP2
64037;SDS011;54641;50.168;8.492;2022-12-18T00:00:17;34.10;;;16.20;;
64037;SDS011;54641;50.168;8.492;2022-12-18T00:02:47;36.40;;;15.80;;
64037;SDS011;54641;50.168;8.492;2022-12-18T00:05:18;34.20;;;15.30;;
64037;SDS011;54641;50.168;8.492;2022-12-18T00:07:48;41.30;;;17.50;;
64037;SDS011;54641;50.168;8.492;2022-12-18T00:10:19;35.80;;;16.20;;
64037;SDS011;54641;50.168;8.492;2022-12-18T00:12:49;29.20;;;11.70;;
64037;SDS011;54641;50.168;8.492;2022-12-18T00:15:20;45.60;;;18.60;;
64037;SDS011;54641;50.168;8.492;2022-12-18T00:17:50;57.60;;;23.50;;
64037;SDS011;54641;50.168;8.492;2022-12-18T00:20:21;56.80;;;23.00;;
64037;SDS011;54641;50.168;8.492;2022-12-18T00:22:53;50.80;;;22.30;;
64037;SDS011;54641;50.168;8.492;2022-12-18T00:25:24;42.60;;;17.90;;
64037;SDS011;54641;50.168;8.492;2022-12-18T00:27:54;41.80;;;16.80;;
64037;SDS011;54641;50.168;8.492;2022-12-18T00:30:25;42.40;;;17.90;;
64037;SDS011;54641;50.168;8.492;2022-12-18T00:32:57;50.50;;;18.80;;
64037;SDS011;54641;50.168;8.492;2022-12-18T00:35:27;37.30;;;14.40;;
64037;SDS011;54641;50.168;8.492;2022-12-18T00:37:58;50.20;;;18.10;;
64037;SDS011;54641;50.168;8.492;2022-12-18T00:40:28;37.70;;;15.50;;
64037;SDS011;54641;50.168;8.492;2022-12-18T00:42:59;34.00;;;15.30;;
64037;SDS011;54641;50.168;8.492;2022-12-18T00:45:30;35.00;;;14.30;;
64037;SDS011;54641;50.168;8.492;2022-12-18T00:48:01;34.70;;;14.80;;
64037;SDS011;54641;50.168;8.492;2022-12-18T00:50:33;37.80;;;15.60;;
64037;SDS011;54641;50.168;8.492;2022-12-18T00:53:04;35.80;;;14.90;;
64037;SDS011;54641;50.168;8.492;2022-12-18T00:55:35;27.20;;;12.50;;
64037;SDS011;54641;50.168;8.492;2022-12-18T00:58:07;29.30;;;12.70;;
64037;SDS011;54641;50.168;8.492;2022-12-18T01:00:39;29.10;;;11.20;;
64037;SDS011;54641;50.168;8.492;2022-12-18T01:03:11;30.80;;;13.40;;
64037;SDS011;54641;50.168;8.492;2022-12-18T01:05:44;44.00;;;16.30;;
64037;SDS011;54641;50.168;8.492;2022-12-18T01:08:14;25.90;;;10.70;;
64037;SDS011;54641;50.168;8.492;2022-12-18T01:10:45;67.60;;;25.10;;
64037;SDS011;54641;50.168;8.492;2022-12-18T01:13:15;49.50;;;19.20;;
64037;SDS011;54641;50.168;8.492;2022-12-18T01:15:49;43.70;;;17.20;;
64037;SDS011;54641;50.168;8.492;2022-12-18T01:18:20;35.80;;;16.70;;
64037;SDS011;54641;50.168;8.492;2022-12-18T01:20:51;41.00;;;15.70;;
64037;SDS011;54641;50.168;8.492;2022-12-18T01:23:21;32.10;;;15.30;;
64037;SDS011;54641;50.168;8.492;2022-12-18T01:25:52;30.00;;;14.30;;
64037;SDS011;54641;50.168;8.492;2022-12-18T01:28:23;32.30;;;14.40;;
64037;SDS011;54641;50.168;8.492;2022-12-18T01:30:53;34.30;;;14.70;;
64037;SDS011;54641;50.168;8.492;2022-12-18T01:33:24;26.60;;;12.60;;
64037;SDS011;54641;50.168;8.492;2022-12-18T01:35:54;33.00;;;14.00;;
64037;SDS011;54641;50.168;8.492;2022-12-18T01:38:24;30.70;;;12.00;;
64037;SDS011;54641;50.168;8.492;2022-12-18T01:40:58;31.10;;;13.40;;
64037;SDS011;54641;50.168;8.492;2022-12-18T01:43:47;28.50;;;10.70;;
64037;SDS011;54641;50.168;8.492;2022-12-18T01:46:21;30.20;;;11.90;;
64037;SDS011;54641;50.168;8.492;2022-12-18T01:48:56;32.80;;;13.30;;
64037;SDS011;54641;50.168;8.492;2022-12-18T01:51:28;49.30;;;18.30;;
64037;SDS011;54641;50.168;8.492;2022-12-18T01:54:00;46.90;;;19.90;;
64037;SDS011;54641;50.168;8.492;2022-12-18T01:56:31;33.70;;;14.40;;
64037;SDS011;54641;50.168;8.492;2022-12-18T01:59:02;29.70;;;14.60;;
64037;SDS011;54641;50.168;8.492;2022-12-18T02:01:34;26.20;;;12.80;;
64037;SDS011;54641;50.168;8.492;2022-12-18T02:04:19;22.80;;;11.30;;
64037;SDS011;54641;50.168;8.492;2022-12-18T02:06:51;29.10;;;12.30;;
64037;SDS011;54641;50.168;8.492;2022-12-18T02:09:27;27.60;;;13.70;;
64037;SDS011;54641;50.168;8.492;2022-12-18T02:12:03;29.30;;;12.50;;
64037;SDS011;54641;50.168;8.492;2022-12-18T02:14:38;26.10;;;10.80;;
64037;SDS011;54641;50.168;8.492;2022-12-18T02:17:10;27.20;;;12.30;;
64037;SDS011;54641;50.168;8.492;2022-12-18T02:19:50;50.20;;;18.70;;
64037;SDS011;54641;50.168;8.492;2022-12-18T02:22:29;55.80;;;21.20;;
64037;SDS011;54641;50.168;8.492;2022-12-18T02:25:12;32.90;;;14.40;;
64037;SDS011;54641;50.168;8.492;2022-12-18T02:27:48;31.60;;;13.10;;
64037;SDS011;54641;50.168;8.492;2022-12-18T02:30:20;34.00;;;15.70;;
64037;SDS011;54641;50.168;8.492;2022-12-18T02:32:52;23.00;;;11.30;;
64037;SDS011;54641;50.168;8.492;2022-12-18T02:35:23;35.50;;;13.10;;
64037;SDS011;54641;50.168;8.492;2022-12-18T02:37:56;33.80;;;13.90;;
64037;SDS011;54641;50.168;8.492;2022-12-18T02:40:30;31.30;;;14.80;;
64037;SDS011;54641;50.168;8.492;2022-12-18T02:43:06;26.10;;;11.50;;
64037;SDS011;54641;50.168;8.492;2022-12-18T02:45:45;37.60;;;15.60;;
64037;SDS011;54641;50.168;8.492;2022-12-18T02:48:17;48.30;;;19.70;;
64037;SDS011;54641;50.168;8.492;2022-12-18T02:50:52;65.10;;;23.20;;
64037;SDS011;54641;50.168;8.492;2022-12-18T02:53:30;33.30;;;15.70;;
64037;SDS011;54641;50.168;8.492;2022-12-18T02:56:06;32.20;;;15.10;;
64037;SDS011;54641;50.168;8.492;2022-12-18T02:58:42;27.10;;;13.00;;
64037;SDS011;54641;50.168;8.492;2022-12-18T03:01:26;32.20;;;14.60;;
64037;SDS011;54641;50.168;8.492;2022-12-18T03:04:04;26.10;;;13.30;;
64037;SDS011;54641;50.168;8.492;2022-12-18T03:06:37;35.90;;;14.20;;
64037;SDS011;54641;50.168;8.492;2022-12-18T03:09:12;30.10;;;14.10;;
64037;SDS011;54641;50.168;8.492;2022-12-18T03:11:48;40.50;;;17.20;;
64037;SDS011;54641;50.168;8.492;2022-12-18T03:14:39;29.40;;;12.40;;
64037;SDS011;54641;50.168;8.492;2022-12-18T03:17:13;33.30;;;14.20;;
64037;SDS011;54641;50.168;8.492;2022-12-18T03:19:46;31.80;;;13.70;;
64037;SDS011;54641;50.168;8.492;2022-12-18T03:22:17;29.00;;;13.70;;
64037;SDS011;54641;50.168;8.492;2022-12-18T03:24:50;24.50;;;9.80;;
64037;SDS011;54641;50.168;8.492;2022-12-18T03:27:21;28.00;;;10.70;;
64037;SDS011;54641;50.168;8.492;2022-12-18T03:29:54;34.00;;;14.00;;
64037;SDS011;54641;50.168;8.492;2022-12-18T03:32:38;31.70;;;13.90;;
64037;SDS011;54641;50.168;8.492;2022-12-18T03:35:10;44.10;;;17.60;;
64037;SDS011;54641;50.168;8.492;2022-12-18T03:37:44;41.90;;;16.90;;
64037;SDS011;54641;50.168;8.492;2022-12-18T03:40:14;33.60;;;14.40;;
64037;SDS011;54641;50.168;8.492;2022-12-18T03:42:46;34.60;;;14.70;;
64037;SDS011;54641;50.168;8.492;2022-12-18T03:45:20;24.20;;;10.70;;
64037;SDS011;54641;50.168;8.492;2022-12-18T03:47:55;30.30;;;14.50;;
64037;SDS011;54641;50.168;8.492;2022-12-18T03:50:36;22.60;;;10.40;;
64037;SDS011;54641;50.168;8.492;2022-12-18T03:53:16;34.10;;;12.70;;
64037;SDS011;54641;50.168;8.492;2022-12-18T03:55:50;35.20;;;15.60;;
64037;SDS011;54641;50.168;8.492;2022-12-18T03:58:23;50.90;;;18.90;;
64037;SDS011;54641;50.168;8.492;2022-12-18T04:01:01;42.30;;;19.10;;
64037;SDS011;54641;50.168;8.492;2022-12-18T04:03:35;37.70;;;16.70;;
64037;SDS011;54641;50.168;8.492;2022-12-18T04:06:07;31.80;;;13.90;;
64037;SDS011;54641;50.168;8.492;2022-12-18T04:08:40;30.90;;;13.80;;
64037;SDS011;54641;50.168;8.492;2022-12-18T04:11:12;29.60;;;12.10;;
64037;SDS011;54641;50.168;8.492;2022-12-18T04:13:44;27.80;;;12.80;;
64037;SDS011;54641;50.168;8.492;2022-12-18T04:16:19;29.30;;;12.90;;
64037;SDS011;54641;50.168;8.492;2022-12-18T04:18:52;30.10;;;12.90;;
64037;SDS011;54641;50.168;8.492;2022-12-18T04:21:25;28.40;;;13.00;;
64037;SDS011;54641;50.168;8.492;2022-12-18T04:23:55;31.40;;;12.60;;
64037;SDS011;54641;50.168;8.492;2022-12-18T04:26:26;29.00;;;12.30;;
64037;SDS011;54641;50.168;8.492;2022-12-18T04:29:06;52.60;;;18.70;;
64037;SDS011;54641;50.168;8.492;2022-12-18T04:31:37;58.80;;;22.20;;
64037;SDS011;54641;50.168;8.492;2022-12-18T04:34:07;61.40;;;24.60;;
64037;SDS011;54641;50.168;8.492;2022-12-18T04:36:43;51.60;;;21.60;;
64037;SDS011;54641;50.168;8.492;2022-12-18T04:39:13;41.00;;;18.00;;
64037;SDS011;54641;50.168;8.492;2022-12-18T04:41:46;41.10;;;17.20;;
64037;SDS011;54641;50.168;8.492;2022-12-18T04:44:16;38.50;;;16.20;;
64037;SDS011;54641;50.168;8.492;2022-12-18T04:46:46;36.70;;;15.90;;
64037;SDS011;54641;50.168;8.492;2022-12-18T04:49:17;40.00;;;15.90;;
64037;SDS011;54641;50.168;8.492;2022-12-18T04:51:48;30.30;;;13.50;;
64037;SDS011;54641;50.168;8.492;2022-12-18T04:54:19;33.80;;;14.50;;
64037;SDS011;54641;50.168;8.492;2022-12-18T04:56:50;37.50;;;15.80;;
64037;SDS011;54641;50.168;8.492;2022-12-18T04:59:21;21.80;;;11.00;;
64037;SDS011;54641;50.168;8.492;2022-12-18T05:01:52;30.70;;;13.90;;
64037;SDS011;54641;50.168;8.492;2022-12-18T05:04:22;24.60;;;11.10;;
64037;SDS011;54641;50.168;8.492;2022-12-18T05:06:53;26.20;;;10.50;;
64037;SDS011;54641;50.168;8.492;2022-12-18T05:09:23;36.00;;;14.30;;
64037;SDS011;54641;50.168;8.492;2022-12-18T05:11:54;48.90;;;17.90;;
64037;SDS011;54641;50.168;8.492;2022-12-18T05:14:25;50.30;;;20.00;;
64037;SDS011;54641;50.168;8.492;2022-12-18T05:16:57;34.60;;;16.70;;
64037;SDS011;54641;50.168;8.492;2022-12-18T05:19:28;29.90;;;13.50;;
64037;SDS011;54641;50.168;8.492;2022-12-18T05:21:58;29.00;;;13.70;;
64037;SDS011;54641;50.168;8.492;2022-12-18T05:24:29;30.40;;;13.30;;
64037;SDS011;54641;50.168;8.492;2022-12-18T05:26:59;27.60;;;10.60;;
64037;SDS011;54641;50.168;8.492;2022-12-18T05:29:30;28.50;;;13.20;;
64037;SDS011;54641;50.168;8.492;2022-12-18T05:32:00;26.20;;;12.40;;
64037;SDS011;54641;50.168;8.492;2022-12-18T05:34:31;23.10;;;8.80;;
64037;SDS011;54641;50.168;8.492;2022-12-18T05:37:02;26.00;;;11.20;;
64037;SDS011;54641;50.168;8.492;2022-12-18T05:39:32;38.10;;;15.30;;
64037;SDS011;54641;50.168;8.492;2022-12-18T05:42:02;22.40;;;10.20;;
64037;SDS011;54641;50.168;8.492;2022-12-18T05:44:33;26.90;;;13.40;;
64037;SDS011;54641;50.168;8.492;2022-12-18T05:47:03;29.70;;;13.50;;
64037;SDS011;54641;50.168;8.492;2022-12-18T05:49:34;32.60;;;13.20;;
64037;SDS011;54641;50.168;8.492;2022-12-18T05:52:05;25.50;;;11.20;;
64037;SDS011;54641;50.168;8.492;2022-12-18T05:54:35;29.90;;;12.90;;
64037;SDS011;54641;50.168;8.492;2022-12-18T05:57:06;23.70;;;9.70;;
64037;SDS011;54641;50.168;8.492;2022-12-18T05:59:37;29.40;;;11.60;;
64037;SDS011;54641;50.168;8.492;2022-12-18T06:02:07;16.10;;;6.70;;
64037;SDS011;54641;50.168;8.492;2022-12-18T06:04:38;33.80;;;14.40;;
64037;SDS011;54641;50.168;8.492;2022-12-18T06:07:08;30.70;;;12.80;;
64037;SDS011;54641;50.168;8.492;2022-12-18T06:09:38;26.20;;;10.30;;
64037;SDS011;54641;50.168;8.492;2022-12-18T06:12:09;25.40;;;9.70;;
64037;SDS011;54641;50.168;8.492;2022-12-18T06:14:39;28.40;;;11.70;;
64037;SDS011;54641;50.168;8.492;2022-12-18T06:17:10;28.20;;;13.10;;
64037;SDS011;54641;50.168;8.492;2022-12-18T06:19:40;25.80;;;10.40;;
64037;SDS011;54641;50.168;8.492;2022-12-18T06:22:10;35.20;;;12.90;;
64037;SDS011;54641;50.168;8.492;2022-12-18T06:24:41;42.50;;;16.10;;
64037;SDS011;54641;50.168;8.492;2022-12-18T06:27:11;28.00;;;11.70;;
64037;SDS011;54641;50.168;8.492;2022-12-18T06:29:42;25.10;;;12.70;;
64037;SDS011;54641;50.168;8.492;2022-12-18T06:32:13;27.20;;;11.80;;
64037;SDS011;54641;50.168;8.492;2022-12-18T06:34:44;27.10;;;11.90;;
64037;SDS011;54641;50.168;8.492;2022-12-18T06:37:14;23.80;;;10.20;;
64037;SDS011;54641;50.168;8.492;2022-12-18T06:39:46;35.00;;;13.80;;
64037;SDS011;54641;50.168;8.492;2022-12-18T06:42:16;33.20;;;12.10;;
64037;SDS011;54641;50.168;8.492;2022-12-18T06:44:47;22.70;;;9.40;;
64037;SDS011;54641;50.168;8.492;2022-12-18T06:47:18;22.90;;;9.30;;
64037;SDS011;54641;50.168;8.492;2022-12-18T06:49:50;25.50;;;11.00;;
64037;SDS011;54641;50.168;8.492;2022-12-18T06:52:20;27.40;;;11.60;;
64037;SDS011;54641;50.168;8.492;2022-12-18T06:54:51;18.10;;;7.80;;
64037;SDS011;54641;50.168;8.492;2022-12-18T06:57:21;24.50;;;9.80;;
64037;SDS011;54641;50.168;8.492;2022-12-18T06:59:52;29.30;;;12.70;;
64037;SDS011;54641;50.168;8.492;2022-12-18T07:02:23;29.10;;;10.40;;
64037;SDS011;54641;50.168;8.492;2022-12-18T07:04:53;25.90;;;10.90;;
64037;SDS011;54641;50.168;8.492;2022-12-18T07:07:23;24.10;;;12.00;;
64037;SDS011;54641;50.168;8.492;2022-12-18T07:09:54;26.90;;;12.90;;
64037;SDS011;54641;50.168;8.492;2022-12-18T07:12:24;31.30;;;15.20;;
64037;SDS011;54641;50.168;8.492;2022-12-18T07:14:58;34.40;;;16.40;;
64037;SDS011;54641;50.168;8.492;2022-12-18T07:17:30;26.70;;;9.40;;
64037;SDS011;54641;50.168;8.492;2022-12-18T07:20:04;30.20;;;12.60;;
64037;SDS011;54641;50.168;8.492;2022-12-18T07:22:38;37.50;;;16.40;;
64037;SDS011;54641;50.168;8.492;2022-12-18T07:25:10;13.60;;;6.10;;
64037;SDS011;54641;50.168;8.492;2022-12-18T07:27:43;23.50;;;11.30;;
64037;SDS011;54641;50.168;8.492;2022-12-18T07:30:18;32.00;;;14.20;;
64037;SDS011;54641;50.168;8.492;2022-12-18T07:32:53;41.50;;;16.60;;
64037;SDS011;54641;50.168;8.492;2022-12-18T07:35:26;23.50;;;9.50;;
64037;SDS011;54641;50.168;8.492;2022-12-18T07:37:59;30.60;;;11.80;;
64037;SDS011;54641;50.168;8.492;2022-12-18T07:40:34;35.00;;;14.70;;
64037;SDS011;54641;50.168;8.492;2022-12-18T07:43:06;36.40;;;15.00;;
64037;SDS011;54641;50.168;8.492;2022-12-18T07:45:38;24.30;;;11.70;;
64037;SDS011;54641;50.168;8.492;2022-12-18T07:48:10;19.60;;;8.90;;
64037;SDS011;54641;50.168;8.492;2022-12-18T07:50:42;30.20;;;13.90;;
64037;SDS011;54641;50.168;8.492;2022-12-18T07:53:14;21.00;;;9.50;;
64037;SDS011;54641;50.168;8.492;2022-12-18T07:55:46;27.80;;;12.10;;
64037;SDS011;54641;50.168;8.492;2022-12-18T07:58:38;19.20;;;7.80;;
64037;SDS011;54641;50.168;8.492;2022-12-18T08:01:13;23.40;;;9.60;;
64037;SDS011;54641;50.168;8.492;2022-12-18T08:03:48;45.10;;;17.40;;
64037;SDS011;54641;50.168;8.492;2022-12-18T08:06:20;29.70;;;13.50;;
64037;SDS011;54641;50.168;8.492;2022-12-18T08:08:53;32.10;;;15.70;;
64037;SDS011;54641;50.168;8.492;2022-12-18T08:11:26;28.80;;;12.50;;
64037;SDS011;54641;50.168;8.492;2022-12-18T08:19:25;22.70;;;11.60;;
64037;SDS011;54641;50.168;8.492;2022-12-18T08:21:56;31.60;;;13.60;;
64037;SDS011;54641;50.168;8.492;2022-12-18T08:24:26;29.10;;;13.00;;
64037;SDS011;54641;50.168;8.492;2022-12-18T08:26:57;24.90;;;13.10;;
64037;SDS011;54641;50.168;8.492;2022-12-18T08:29:47;22.40;;;11.30;;
64037;SDS011;54641;50.168;8.492;2022-12-18T08:32:18;28.90;;;14.90;;
64037;SDS011;54641;50.168;8.492;2022-12-18T08:34:49;25.00;;;11.00;;
64037;SDS011;54641;50.168;8.492;2022-12-18T08:37:19;21.50;;;9.40;;
64037;SDS011;54641;50.168;8.492;2022-12-18T08:39:49;28.30;;;13.20;;
64037;SDS011;54641;50.168;8.492;2022-12-18T08:42:20;25.20;;;11.90;;
64037;SDS011;54641;50.168;8.492;2022-12-18T08:45:10;29.00;;;14.60;;
64037;SDS011;54641;50.168;8.492;2022-12-18T08:47:40;20.70;;;9.70;;
64037;SDS011;54641;50.168;8.492;2022-12-18T08:50:12;24.90;;;11.70;;
64037;SDS011;54641;50.168;8.492;2022-12-18T08:52:42;28.30;;;13.60;;
64037;SDS011;54641;50.168;8.492;2022-12-18T08:55:14;27.90;;;14.10;;
64037;SDS011;54641;50.168;8.492;2022-12-18T08:57:44;31.60;;;13.40;;
64037;SDS011;54641;50.168;8.492;2022-12-18T09:00:18;30.00;;;14.80;;
64037;SDS011;54641;50.168;8.492;2022-12-18T09:02:48;24.60;;;12.30;;
64037;SDS011;54641;50.168;8.492;2022-12-18T09:05:19;25.40;;;10.80;;
64037;SDS011;54641;50.168;8.492;2022-12-18T09:07:50;27.50;;;12.20;;
64037;SDS011;54641;50.168;8.492;2022-12-18T09:10:21;25.50;;;13.20;;
64037;SDS011;54641;50.168;8.492;2022-12-18T09:12:51;32.10;;;14.40;;
64037;SDS011;54641;50.168;8.492;2022-12-18T09:15:23;25.70;;;13.10;;
64037;SDS011;54641;50.168;8.492;2022-12-18T09:17:54;27.80;;;13.40;;
64037;SDS011;54641;50.168;8.492;2022-12-18T09:20:24;28.80;;;14.70;;
64037;SDS011;54641;50.168;8.492;2022-12-18T09:22:55;26.00;;;14.00;;
64037;SDS011;54641;50.168;8.492;2022-12-18T09:25:28;31.10;;;17.00;;
64037;SDS011;54641;50.168;8.492;2022-12-18T09:28:00;27.70;;;15.10;;
64037;SDS011;54641;50.168;8.492;2022-12-18T09:30:31;26.20;;;13.20;;
64037;SDS011;54641;50.168;8.492;2022-12-18T09:33:03;25.40;;;14.60;;
64037;SDS011;54641;50.168;8.492;2022-12-18T09:35:37;28.10;;;16.40;;
64037;SDS011;54641;50.168;8.492;2022-12-18T09:38:08;26.90;;;13.30;;
64037;SDS011;54641;50.168;8.492;2022-12-18T09:40:44;24.80;;;14.70;;
64037;SDS011;54641;50.168;8.492;2022-12-18T09:43:21;27.90;;;15.20;;
64037;SDS011;54641;50.168;8.492;2022-12-18T09:45:57;27.30;;;15.90;;
64037;SDS011;54641;50.168;8.492;2022-12-18T09:48:35;23.40;;;14.20;;
64037;SDS011;54641;50.168;8.492;2022-12-18T09:51:10;28.60;;;16.50;;
64037;SDS011;54641;50.168;8.492;2022-12-18T09:53:52;26.00;;;14.70;;
64037;SDS011;54641;50.168;8.492;2022-12-18T09:56:33;25.10;;;14.70;;
64037;SDS011;54641;50.168;8.492;2022-12-18T09:59:09;31.00;;;16.90;;
64037;SDS011;54641;50.168;8.492;2022-12-18T10:01:47;25.10;;;14.40;;
64037;SDS011;54641;50.168;8.492;2022-12-18T10:04:19;28.60;;;16.20;;
64037;SDS011;54641;50.168;8.492;2022-12-18T10:06:52;31.00;;;17.90;;
64037;SDS011;54641;50.168;8.492;2022-12-18T10:09:33;31.90;;;16.30;;
64037;SDS011;54641;50.168;8.492;2022-12-18T10:12:12;27.70;;;14.90;;
64037;SDS011;54641;50.168;8.492;2022-12-18T10:14:46;32.60;;;18.30;;
64037;SDS011;54641;50.168;8.492;2022-12-18T10:17:23;31.90;;;18.70;;
64037;SDS011;54641;50.168;8.492;2022-12-18T10:19:56;32.90;;;19.00;;
64037;SDS011;54641;50.168;8.492;2022-12-18T10:22:33;35.40;;;19.80;;
64037;SDS011;54641;50.168;8.492;2022-12-18T10:25:18;36.20;;;21.00;;
64037;SDS011;54641;50.168;8.492;2022-12-18T10:27:53;34.40;;;20.60;;
64037;SDS011;54641;50.168;8.492;2022-12-18T10:30:26;34.80;;;19.80;;
64037;SDS011;54641;50.168;8.492;2022-12-18T10:33:01;38.50;;;22.10;;
64037;SDS011;54641;50.168;8.492;2022-12-18T10:35:42;38.80;;;22.30;;
64037;SDS011;54641;50.168;8.492;2022-12-18T10:41:00;36.60;;;19.30;;
64037;SDS011;54641;50.168;8.492;2022-12-18T10:43:42;41.90;;;22.10;;
64037;SDS011;54641;50.168;8.492;2022-12-18T10:46:13;38.50;;;20.60;;
64037;SDS011;54641;50.168;8.492;2022-12-18T10:48:59;39.30;;;18.70;;
64037;SDS011;54641;50.168;8.492;2022-12-18T10:51:30;35.80;;;18.10;;
64037;SDS011;54641;50.168;8.492;2022-12-18T10:54:02;47.50;;;23.50;;
64037;SDS011;54641;50.168;8.492;2022-12-18T10:56:37;48.30;;;22.90;;
64037;SDS011;54641;50.168;8.492;2022-12-18T10:59:10;43.50;;;20.30;;
64037;SDS011;54641;50.168;8.492;2022-12-18T11:01:49;47.40;;;21.60;;
64037;SDS011;54641;50.168;8.492;2022-12-18T11:04:25;51.90;;;24.60;;
64037;SDS011;54641;50.168;8.492;2022-12-18T11:07:03;35.80;;;18.00;;
64037;SDS011;54641;50.168;8.492;2022-12-18T11:10:00;48.30;;;21.70;;
64037;SDS011;54641;50.168;8.492;2022-12-18T11:12:31;40.60;;;19.00;;
64037;SDS011;54641;50.168;8.492;2022-12-18T11:15:02;32.30;;;15.10;;
64037;SDS011;54641;50.168;8.492;2022-12-18T11:17:33;46.20;;;20.10;;
64037;SDS011;54641;50.168;8.492;2022-12-18T11:20:05;42.20;;;18.50;;
64037;SDS011;54641;50.168;8.492;2022-12-18T11:22:57;32.90;;;16.60;;
64037;SDS011;54641;50.168;8.492;2022-12-18T11:25:31;44.10;;;18.80;;
64037;SDS011;54641;50.168;8.492;2022-12-18T11:28:03;50.20;;;22.10;;
64037;SDS011;54641;50.168;8.492;2022-12-18T11:30:37;48.90;;;21.70;;
64037;SDS011;54641;50.168;8.492;2022-12-18T11:33:09;59.10;;;24.20;;
64037;SDS011;54641;50.168;8.492;2022-12-18T11:35:44;49.10;;;23.00;;
64037;SDS011;54641;50.168;8.492;2022-12-18T11:38:20;33.30;;;15.20;;
64037;SDS011;54641;50.168;8.492;2022-12-18T11:40:53;37.80;;;17.60;;
64037;SDS011;54641;50.168;8.492;2022-12-18T11:43:28;53.30;;;20.50;;
64037;SDS011;54641;50.168;8.492;2022-12-18T11:46:00;50.20;;;21.40;;
64037;SDS011;54641;50.168;8.492;2022-12-18T11:51:03;26.70;;;11.70;;
64037;SDS011;54641;50.168;8.492;2022-12-18T11:53:37;46.10;;;19.50;;
64037;SDS011;54641;50.168;8.492;2022-12-18T11:56:13;41.60;;;18.60;;
64037;SDS011;54641;50.168;8.492;2022-12-18T11:59:00;38.50;;;16.10;;
64037;SDS011;54641;50.168;8.492;2022-12-18T12:01:41;36.50;;;17.10;;
64037;SDS011;54641;50.168;8.492;2022-12-18T12:04:26;41.00;;;16.90;;
64037;SDS011;54641;50.168;8.492;2022-12-18T12:07:15;37.90;;;14.90;;
64037;SDS011;54641;50.168;8.492;2022-12-18T12:09:53;53.60;;;21.50;;
64037;SDS011;54641;50.168;8.492;2022-12-18T12:12:34;46.80;;;21.50;;
64037;SDS011;54641;50.168;8.492;2022-12-18T12:15:20;47.20;;;19.90;;
64037;SDS011;54641;50.168;8.492;2022-12-18T12:17:55;48.30;;;18.20;;
64037;SDS011;54641;50.168;8.492;2022-12-18T12:20:40;43.80;;;19.80;;
64037;SDS011;54641;50.168;8.492;2022-12-18T12:23:15;45.10;;;16.40;;
64037;SDS011;54641;50.168;8.492;2022-12-18T12:25:56;53.10;;;21.40;;
64037;SDS011;54641;50.168;8.492;2022-12-18T12:28:33;50.60;;;20.20;;
64037;SDS011;54641;50.168;8.492;2022-12-18T12:31:14;42.00;;;15.30;;
64037;SDS011;54641;50.168;8.492;2022-12-18T12:33:51;45.40;;;18.60;;
64037;SDS011;54641;50.168;8.492;2022-12-18T12:36:30;53.10;;;21.80;;
64037;SDS011;54641;50.168;8.492;2022-12-18T12:39:08;58.80;;;22.00;;
64037;SDS011;54641;50.168;8.492;2022-12-18T12:41:43;38.40;;;17.00;;
64037;SDS011;54641;50.168;8.492;2022-12-18T12:44:34;28.60;;;12.30;;
64037;SDS011;54641;50.168;8.492;2022-12-18T12:47:10;33.90;;;13.70;;
64037;SDS011;54641;50.168;8.492;2022-12-18T12:49:44;29.00;;;12.70;;
64037;SDS011;54641;50.168;8.492;2022-12-18T12:52:20;47.60;;;18.50;;
64037;SDS011;54641;50.168;8.492;2022-12-18T12:54:57;34.40;;;12.50;;
64037;SDS011;54641;50.168;8.492;2022-12-18T12:57:30;51.60;;;20.60;;
64037;SDS011;54641;50.168;8.492;2022-12-18T13:00:04;45.60;;;19.50;;
64037;SDS011;54641;50.168;8.492;2022-12-18T13:02:39;57.40;;;22.50;;
64037;SDS011;54641;50.168;8.492;2022-12-18T13:05:16;52.50;;;19.90;;
64037;SDS011;54641;50.168;8.492;2022-12-18T13:07:51;30.60;;;14.00;;
64037;SDS011;54641;50.168;8.492;2022-12-18T13:10:35;52.10;;;20.60;;
64037;SDS011;54641;50.168;8.492;2022-12-18T13:13:07;42.60;;;16.90;;
64037;SDS011;54641;50.168;8.492;2022-12-18T13:15:42;33.50;;;15.10;;
64037;SDS011;54641;50.168;8.492;2022-12-18T13:18:15;51.60;;;19.20;;
64037;SDS011;54641;50.168;8.492;2022-12-18T13:20:48;69.70;;;21.50;;
64037;SDS011;54641;50.168;8.492;2022-12-18T13:23:30;64.70;;;20.70;;
64037;SDS011;54641;50.168;8.492;2022-12-18T13:29:00;40.80;;;18.00;;
64037;SDS011;54641;50.168;8.492;2022-12-18T13:34:29;51.50;;;19.60;;
64037;SDS011;54641;50.168;8.492;2022-12-18T13:43:30;48.90;;;15.80;;
64037;SDS011;54641;50.168;8.492;2022-12-18T13:46:03;50.40;;;19.70;;
64037;SDS011;54641;50.168;8.492;2022-12-18T13:48:52;44.80;;;17.20;;
64037;SDS011;54641;50.168;8.492;2022-12-18T13:51:25;48.10;;;19.40;;
64037;SDS011;54641;50.168;8.492;2022-12-18T13:53:58;47.70;;;17.60;;
64037;SDS011;54641;50.168;8.492;2022-12-18T13:56:31;57.80;;;19.40;;
64037;SDS011;54641;50.168;8.492;2022-12-18T14:01:53;51.60;;;20.10;;
64037;SDS011;54641;50.168;8.492;2022-12-18T14:04:25;39.50;;;16.00;;
64037;SDS011;54641;50.168;8.492;2022-12-18T14:06:57;59.60;;;20.20;;
64037;SDS011;54641;50.168;8.492;2022-12-18T14:09:31;52.00;;;18.70;;
64037;SDS011;54641;50.168;8.492;2022-12-18T14:12:11;39.60;;;13.80;;
64037;SDS011;54641;50.168;8.492;2022-12-18T14:15:05;41.70;;;15.00;;
64037;SDS011;54641;50.168;8.492;2022-12-18T14:17:38;43.60;;;15.80;;
64037;SDS011;54641;50.168;8.492;2022-12-18T14:20:13;35.60;;;14.00;;
64037;SDS011;54641;50.168;8.492;2022-12-18T14:22:45;30.80;;;12.70;;
64037;SDS011;54641;50.168;8.492;2022-12-18T14:25:19;55.50;;;21.00;;
64037;SDS011;54641;50.168;8.492;2022-12-18T14:27:52;42.90;;;13.60;;
64037;SDS011;54641;50.168;8.492;2022-12-18T14:30:32;34.00;;;14.10;;
64037;SDS011;54641;50.168;8.492;2022-12-18T14:33:08;46.60;;;18.30;;
64037;SDS011;54641;50.168;8.492;2022-12-18T14:35:40;28.80;;;13.20;;
64037;SDS011;54641;50.168;8.492;2022-12-18T14:38:20;55.90;;;21.70;;
64037;SDS011;54641;50.168;8.492;2022-12-18T14:40:56;49.10;;;17.70;;
64037;SDS011;54641;50.168;8.492;2022-12-18T14:43:28;53.80;;;20.10;;
64037;SDS011;54641;50.168;8.492;2022-12-18T14:46:01;54.60;;;21.50;;
64037;SDS011;54641;50.168;8.492;2022-12-18T14:48:36;50.10;;;20.10;;
64037;SDS011;54641;50.168;8.492;2022-12-18T14:51:14;49.00;;;16.50;;
64037;SDS011;54641;50.168;8.492;2022-12-18T14:53:47;70.60;;;22.90;;
64037;SDS011;54641;50.168;8.492;2022-12-18T14:56:23;37.30;;;15.60;;
64037;SDS011;54641;50.168;8.492;2022-12-18T14:58:55;48.60;;;16.50;;
64037;SDS011;54641;50.168;8.492;2022-12-18T15:01:27;44.30;;;18.60;;
64037;SDS011;54641;50.168;8.492;2022-12-18T15:04:01;44.50;;;17.70;;
64037;SDS011;54641;50.168;8.492;2022-12-18T15:07:03;54.50;;;21.30;;
64037;SDS011;54641;50.168;8.492;2022-12-18T15:09:39;45.20;;;17.60;;
64037;SDS011;54641;50.168;8.492;2022-12-18T15:12:22;43.40;;;16.20;;
64037;SDS011;54641;50.168;8.492;2022-12-18T15:15:00;48.80;;;18.90;;
64037;SDS011;54641;50.168;8.492;2022-12-18T15:17:37;59.50;;;19.40;;
64037;SDS011;54641;50.168;8.492;2022-12-18T15:20:13;48.10;;;17.40;;
64037;SDS011;54641;50.168;8.492;2022-12-18T15:22:52;40.30;;;14.70;;
64037;SDS011;54641;50.168;8.492;2022-12-18T15:25:25;38.70;;;16.00;;